Time;durP1;ratioP1;P1;durP2;ratioP2;P2;SDS_P1;SDS_P2;PMS_P1;PMS_P2;Temp;Humidity;BMP_temperature;BMP_pressure;BME280_temperature;BME280_humidity;BME280_pressure;Samples;Min_cycle;Max_cycle;Signal;HPM_P1;HPM_P2
2022/07/05 00:01:49;;;;;;;1.40;1.02;;;;;;;12.65;100.00;101314.28;5027004;28;20427;-85
2022/07/05 00:04:22;;;;;;;2.07;1.10;;;;;;;12.69;100.00;101315.38;5024943;28;20524;-85
2022/07/05 00:09:43;;;;;;;3.97;1.30;;;;;;;12.49;100.00;101312.69;5024224;28;20768;-87
2022/07/05 00:12:17;;;;;;;1.92;1.13;;;;;;;12.49;100.00;101312.69;5029963;28;20419;-86
2022/07/05 00:14:51;;;;;;;2.47;1.17;;;;;;;12.50;100.00;101312.41;5026907;28;20423;-85
2022/07/05 00:17:25;;;;;;;2.80;1.27;;;;;;;12.51;100.00;101318.69;5030215;28;20435;-86
2022/07/05 00:19:58;;;;;;;3.28;1.20;;;;;;;12.55;100.00;101312.41;5025438;28;20439;-86
2022/07/05 00:22:32;;;;;;;3.25;1.23;;;;;;;12.40;100.00;101321.44;5025733;28;20422;-84
2022/07/05 00:25:06;;;;;;;2.25;1.20;;;;;;;12.44;100.00;101309.97;5029032;28;20415;-85
2022/07/05 00:27:39;;;;;;;2.57;1.23;;;;;;;12.34;100.00;101324.47;5022540;28;20911;-85
2022/07/05 00:30:09;;;;;;;3.75;1.25;;;;;;;12.38;100.00;101318.16;5025704;28;20514;-85
2022/07/05 00:32:38;;;;;;;3.17;1.27;;;;;;;12.19;100.00;101315.22;5022934;28;20415;-84
2022/07/05 00:35:12;;;;;;;2.22;1.17;;;;;;;12.23;100.00;101310.00;5026100;28;20407;-85
2022/07/05 00:37:41;;;;;;;2.42;1.20;;;;;;;12.37;100.00;101313.00;5025987;28;20409;-86
2022/07/05 00:40:14;;;;;;;2.43;1.30;;;;;;;12.37;100.00;101316.56;5028698;28;20423;-84
2022/07/05 00:42:43;;;;;;;2.22;1.20;;;;;;;12.25;100.00;101319.56;5035241;28;20904;-85
2022/07/05 00:45:16;;;;;;;2.85;1.30;;;;;;;12.30;100.00;101320.66;5025201;28;20431;-85
2022/07/05 00:47:49;;;;;;;3.92;1.40;;;;;;;12.28;100.00;101323.66;5021361;28;20434;-85
2022/07/05 00:50:24;;;;;;;3.97;1.30;;;;;;;12.23;100.00;101319.00;5025807;28;20427;-85
2022/07/05 00:52:58;;;;;;;5.40;1.48;;;;;;;11.97;100.00;101318.22;5025697;28;20747;-85
2022/07/05 00:55:27;;;;;;;4.18;1.35;;;;;;;12.07;100.00;101331.06;5024743;28;20452;-85
2022/07/05 00:57:55;;;;;;;3.67;1.48;;;;;;;12.09;100.00;101320.69;5027177;28;20438;-85
2022/07/05 01:00:29;;;;;;;4.07;1.40;;;;;;;11.99;100.00;101320.69;5026997;28;20431;-86
2022/07/05 01:03:02;;;;;;;4.55;1.60;;;;;;;11.97;100.00;101320.13;5025638;28;20430;-85
2022/07/05 01:05:35;;;;;;;2.53;1.30;;;;;;;11.93;100.00;101322.53;5025501;28;20508;-86
2022/07/05 01:08:10;;;;;;;3.22;1.70;;;;;;;11.93;100.00;101324.47;5026136;28;20427;-83
2022/07/05 01:10:43;;;;;;;4.00;1.50;;;;;;;11.89;100.00;101327.75;5027685;28;20431;-85
2022/07/05 01:13:11;;;;;;;3.63;1.40;;;;;;;11.82;100.00;101324.47;5029078;28;20409;-86
2022/07/05 01:15:45;;;;;;;3.73;1.47;;;;;;;11.85;100.00;101321.19;5026759;28;20427;-84
2022/07/05 01:18:13;;;;;;;5.90;1.65;;;;;;;11.78;100.00;101323.38;5024891;28;20453;-85
2022/07/05 01:20:48;;;;;;;3.42;1.60;;;;;;;11.71;100.00;101320.09;5025038;28;20423;-85
2022/07/05 01:23:19;;;;;;;3.08;1.60;;;;;;;11.76;100.00;101316.56;5027932;28;20946;-85
2022/07/05 01:25:53;;;;;;;4.97;1.58;;;;;;;11.89;100.00;101314.13;5030993;28;20422;-86
2022/07/05 01:28:21;;;;;;;3.95;1.65;;;;;;;11.86;100.00;101319.28;5026257;28;20427;-86
2022/07/05 01:30:55;;;;;;;4.50;1.70;;;;;;;11.70;100.00;101316.56;5022234;28;20427;-84
2022/07/05 01:33:29;;;;;;;3.42;1.70;;;;;;;11.82;100.00;101318.19;5019349;28;20430;-85
2022/07/05 01:35:58;;;;;;;2.93;1.57;;;;;;;11.80;100.00;101325.84;5025313;28;20446;-86
2022/07/05 01:38:28;;;;;;;3.75;1.58;;;;;;;11.71;100.00;101322.81;5023600;28;20427;-86
2022/07/05 01:41:01;;;;;;;4.30;1.52;;;;;;;11.72;100.00;101319.00;5037040;28;20411;-85
2022/07/05 01:43:34;;;;;;;2.80;1.40;;;;;;;11.77;100.00;101321.75;5020618;28;20423;-86
2022/07/05 01:46:09;;;;;;;4.65;1.50;;;;;;;11.82;100.00;101323.66;5018284;28;20447;-86
2022/07/05 01:48:42;;;;;;;3.83;1.50;;;;;;;11.83;100.00;101322.56;5020307;28;20430;-85
2022/07/05 01:51:21;;;;;;;2.45;1.38;;;;;;;11.76;100.00;101317.38;5026862;28;20423;-86
2022/07/05 01:53:55;;;;;;;3.03;1.48;;;;;;;11.90;100.00;101320.38;5025922;28;20887;-85
2022/07/05 01:56:28;;;;;;;4.55;1.75;;;;;;;11.86;100.00;101309.22;5027436;28;20423;-88
2022/07/05 01:59:02;;;;;;;3.80;1.42;;;;;;;11.95;100.00;101320.41;5028527;28;20438;-86
2022/07/05 02:01:35;;;;;;;4.68;1.73;;;;;;;11.89;100.00;101321.47;5025885;28;20426;-86
2022/07/05 02:04:10;;;;;;;5.03;1.50;;;;;;;11.85;100.00;101321.19;5024383;28;20419;-86
2022/07/05 02:06:45;;;;;;;3.30;1.50;;;;;;;11.86;100.00;101322.00;5034862;28;20431;-86
2022/07/05 02:09:19;;;;;;;3.38;1.45;;;;;;;11.83;100.00;101328.81;5036600;28;20442;-85
2022/07/05 02:11:48;;;;;;;5.32;1.63;;;;;;;11.78;100.00;101317.94;5026185;28;20418;-84
2022/07/05 02:14:22;;;;;;;2.60;1.40;;;;;;;11.81;100.00;101324.75;5026996;28;21104;-86
2022/07/05 02:16:51;;;;;;;4.07;1.50;;;;;;;11.77;100.00;101319.03;5025337;28;20431;-85
2022/07/05 02:19:24;;;;;;;2.92;1.42;;;;;;;11.74;100.00;101322.28;5024387;28;20795;-85
2022/07/05 02:21:58;;;;;;;3.47;1.52;;;;;;;11.74;100.00;101322.28;5020680;28;20776;-86
2022/07/05 02:24:32;;;;;;;3.42;1.38;;;;;;;11.69;100.00;101328.53;5030503;28;20865;-86
2022/07/05 02:27:20;;;;;;;3.53;1.60;;;;;;;11.74;100.00;101325.84;5026245;28;20423;-86
2022/07/05 02:29:50;;;;;;;3.10;1.60;;;;;;;11.58;100.00;101329.63;5026868;28;20761;-85
2022/07/05 02:32:23;;;;;;;4.27;1.60;;;;;;;11.68;100.00;101328.81;5024231;28;20435;-85
2022/07/05 02:34:56;;;;;;;2.17;1.40;;;;;;;11.67;100.00;101330.75;5023066;28;20916;-86
2022/07/05 02:37:24;;;;;;;4.32;1.75;;;;;;;11.57;100.00;101328.81;5022407;28;20427;-86
2022/07/05 02:39:59;;;;;;;6.30;1.80;;;;;;;11.64;100.00;101335.91;5025563;28;20741;-84
2022/07/05 02:42:36;;;;;;;4.30;1.90;;;;;;;11.64;100.00;101330.44;5027769;28;20407;-85
2022/07/05 02:45:12;;;;;;;3.67;1.50;;;;;;;11.61;100.00;101337.25;5023739;28;20430;-84
2022/07/05 02:47:50;;;;;;;2.85;1.60;;;;;;;11.61;100.00;101336.44;5023354;28;20419;-86
2022/07/05 02:50:23;;;;;;;4.60;1.50;;;;;;;11.61;100.00;101336.44;5022477;28;20441;-85
2022/07/05 02:52:56;;;;;;;3.35;1.80;;;;;;;11.65;100.00;101332.91;5029661;28;20424;-85
2022/07/05 02:55:31;;;;;;;3.80;1.90;;;;;;;11.51;100.00;101345.44;5028506;28;20421;-83
2022/07/05 02:58:05;;;;;;;5.25;1.70;;;;;;;11.61;100.00;101344.63;5030448;28;20419;-86
2022/07/05 03:00:38;;;;;;;5.53;1.85;;;;;;;11.42;100.00;101333.41;5025312;28;20427;-85
2022/07/05 03:03:12;;;;;;;4.43;1.80;;;;;;;11.43;100.00;101349.50;5025170;28;20427;-84
2022/07/05 03:05:40;;;;;;;4.75;1.60;;;;;;;11.54;100.00;101351.16;5022734;28;20450;-85
2022/07/05 03:08:14;;;;;;;7.22;1.88;;;;;;;11.48;100.00;101351.44;5026202;28;20418;-85
2022/07/05 03:10:49;;;;;;;3.00;1.60;;;;;;;11.55;100.00;101355.50;5028746;28;20899;-86
2022/07/05 03:13:22;;;;;;;3.53;1.60;;;;;;;11.52;100.00;101353.34;5056679;28;20423;-85
2022/07/05 03:15:56;;;;;;;3.90;1.80;;;;;;;11.61;100.00;101350.09;5036723;28;20412;-85
2022/07/05 03:18:30;;;;;;;3.50;1.80;;;;;;;11.64;100.00;101353.09;5049843;28;20972;-85
2022/07/05 03:21:06;;;;;;;4.32;1.90;;;;;;;11.65;100.00;101360.16;5066008;28;20416;-84
2022/07/05 03:23:39;;;;;;;6.80;1.70;;;;;;;11.70;100.00;101354.72;5065021;28;20442;-84
2022/07/05 03:26:14;;;;;;;5.28;1.88;;;;;;;11.68;100.00;101353.34;5065571;28;20427;-85
2022/07/05 03:28:43;;;;;;;3.55;1.77;;;;;;;11.64;100.00;101353.09;5074541;28;20410;-86
2022/07/05 03:31:17;;;;;;;4.60;1.90;;;;;;;11.68;100.00;101356.94;5052457;28;20431;-85
2022/07/05 03:33:52;;;;;;;5.03;1.90;;;;;;;11.74;100.00;101353.09;5054462;28;20452;-86
2022/07/05 03:36:25;;;;;;;3.17;1.73;;;;;;;11.70;100.00;101346.56;5059104;28;20426;-86
2022/07/05 03:39:00;;;;;;;5.70;2.00;;;;;;;11.72;100.00;101354.47;5060112;28;21241;-85
2022/07/05 03:41:31;;;;;;;5.13;1.83;;;;;;;11.75;100.00;101351.19;5060236;28;20417;-86
2022/07/05 03:44:06;;;;;;;4.32;1.90;;;;;;;11.75;100.00;101351.19;5053819;28;20416;-86
2022/07/05 03:46:40;;;;;;;3.83;1.88;;;;;;;11.77;100.00;101353.66;5048564;28;20432;-85
2022/07/05 03:49:08;;;;;;;6.20;2.00;;;;;;;11.75;100.00;101348.44;5039943;28;20434;-84
2022/07/05 03:51:42;;;;;;;8.63;2.05;;;;;;;11.76;100.00;101349.28;5070096;28;20408;-85
2022/07/05 03:54:10;;;;;;;2.97;1.88;;;;;;;11.82;100.00;101357.22;5060093;28;20417;-84
2022/07/05 03:56:45;;;;;;;4.10;1.90;;;;;;;11.81;100.00;101358.28;5062273;28;20404;-85
2022/07/05 03:59:15;;;;;;;4.97;1.83;;;;;;;11.85;100.00;101353.13;5066940;28;21252;-84
2022/07/05 04:01:45;;;;;;;6.32;2.00;;;;;;;11.86;100.00;101361.03;5067522;28;20422;-85
2022/07/05 04:04:14;;;;;;;7.80;2.37;;;;;;;11.89;100.00;101365.09;5050554;28;20430;-84
2022/07/05 04:06:48;;;;;;;6.30;2.00;;;;;;;11.93;100.00;101359.94;5061169;28;20445;-83
2022/07/05 04:09:22;;;;;;;5.50;2.00;;;;;;;12.09;100.00;101358.88;5046593;28;20432;-85
2022/07/05 04:11:58;;;;;;;4.07;1.98;;;;;;;12.06;100.00;101351.25;5051746;28;20438;-87
2022/07/05 04:14:26;;;;;;;4.50;2.00;;;;;;;12.11;100.00;101353.13;5060070;28;20922;-85
2022/07/05 04:16:54;;;;;;;4.75;2.03;;;;;;;12.09;100.00;101356.13;5050974;28;20463;-85
2022/07/05 04:19:28;;;;;;;3.17;1.77;;;;;;;12.20;100.00;101365.16;5046502;28;20452;-86
2022/07/05 04:21:57;;;;;;;4.20;2.00;;;;;;;12.22;100.00;101366.50;5050514;28;20421;-85
2022/07/05 04:24:25;;;;;;;5.60;1.95;;;;;;;12.23;100.00;101365.41;5054439;28;20431;-85
2022/07/05 04:27:00;;;;;;;6.32;2.22;;;;;;;12.28;100.00;101366.50;5056441;28;20769;-86
2022/07/05 04:29:34;;;;;;;5.65;2.00;;;;;;;12.34;100.00;101362.69;5075319;28;20411;-84
2022/07/05 04:32:03;;;;;;;3.67;1.85;;;;;;;12.36;100.00;101365.94;5050315;28;20428;-86
2022/07/05 04:34:36;;;;;;;5.63;1.90;;;;;;;12.40;100.00;101367.03;5047488;28;20790;-86
2022/07/05 04:37:10;;;;;;;4.63;2.03;;;;;;;12.36;100.00;101361.31;5051764;28;20407;-85
2022/07/05 04:39:43;;;;;;;6.40;2.05;;;;;;;12.44;100.00;101361.84;5072227;28;20830;-87
2022/07/05 04:42:13;;;;;;;6.90;1.98;;;;;;;12.43;100.00;101358.31;5081074;28;20837;-85
2022/07/05 04:44:47;;;;;;;4.22;1.90;;;;;;;12.58;100.00;101368.34;5054188;28;20413;-85
2022/07/05 04:47:20;;;;;;;4.07;2.07;;;;;;;12.66;100.00;101366.97;5055942;28;20423;-85
2022/07/05 04:49:57;;;;;;;5.07;1.98;;;;;;;12.70;100.00;101370.78;5046511;28;20435;-85
2022/07/05 04:52:30;;;;;;;6.43;2.15;;;;;;;12.66;100.00;101364.25;5048533;28;20921;-86
2022/07/05 04:55:04;;;;;;;5.57;2.20;;;;;;;12.75;100.00;101366.13;5055647;28;20439;-86
2022/07/05 04:57:39;;;;;;;5.93;2.20;;;;;;;12.87;100.00;101356.81;5073998;28;20406;-86
2022/07/05 05:00:14;;;;;;;5.30;1.98;;;;;;;13.03;100.00;101361.13;5064048;28;20419;-85
2022/07/05 05:02:42;;;;;;;7.72;2.00;;;;;;;13.03;100.00;101366.56;5063074;28;20774;-88
2022/07/05 05:05:15;;;;;;;5.15;1.92;;;;;;;13.10;100.00;101374.47;5060816;28;20766;-89
2022/07/05 05:07:44;;;;;;;5.38;2.13;;;;;;;13.21;100.00;101380.72;5047471;28;20438;-85
2022/07/05 05:10:18;;;;;;;4.65;1.98;;;;;;;13.35;100.00;101375.47;5039198;28;20448;-86
2022/07/05 05:12:47;;;;;;;4.82;2.03;;;;;;;14.10;100.00;101375.25;5066383;28;20427;-85
2022/07/05 05:15:15;;;;;;;6.82;1.90;;;;;;;16.07;100.00;101363.53;5053377;28;20421;-85
2022/07/05 05:17:49;;;;;;;3.30;1.70;;;;;;;18.06;100.00;101363.59;5060195;28;20440;-86
2022/07/05 05:20:22;;;;;;;4.63;1.70;;;;;;;19.17;100.00;101366.38;5060916;28;20814;-85
2022/07/05 05:22:50;;;;;;;3.75;1.60;;;;;;;19.59;100.00;101365.94;5059171;28;20423;-89
2022/07/05 05:25:19;;;;;;;4.55;1.60;;;;;;;20.55;100.00;101359.47;5044679;28;20442;-89
2022/07/05 05:27:53;;;;;;;3.67;1.40;;;;;;;20.14;100.00;101364.44;5062642;28;20421;-85
2022/07/05 05:30:26;;;;;;;2.65;1.40;;;;;;;21.52;100.00;101354.19;5047061;28;20905;-90
2022/07/05 05:32:59;;;;;;;2.85;1.15;;;;;;;20.96;100.00;101365.47;5060031;28;20443;-82
2022/07/05 05:35:33;;;;;;;3.05;1.40;;;;;;;21.21;100.00;101364.50;5064130;28;20942;-88
2022/07/05 05:38:06;;;;;;;5.05;1.50;;;;;;;20.89;100.00;101361.28;5042611;28;20434;-85
2022/07/05 05:40:41;;;;;;;5.30;1.37;;;;;;;21.24;100.00;101363.81;5041650;28;20584;-83
2022/07/05 05:43:15;;;;;;;2.83;1.55;;;;;;;20.52;100.00;101358.16;5024060;28;20963;-85
2022/07/05 05:45:48;;;;;;;4.82;1.40;;;;;;;19.97;100.00;101358.94;5023925;28;20423;-84
2022/07/05 05:48:22;;;;;;;4.60;2.10;;;;;;;20.14;100.00;101360.88;5024126;28;20883;-84
2022/07/05 05:50:56;;;;;;;3.90;1.35;;;;;;;18.62;100.00;101366.84;5025903;28;20486;-84
2022/07/05 05:53:29;;;;;;;5.25;1.65;;;;;;;17.54;100.00;101375.81;5008766;28;20423;-88
2022/07/05 05:56:02;;;;;;;3.08;1.55;;;;;;;17.24;100.00;101383.63;5032547;28;21174;-85
2022/07/05 05:58:37;;;;;;;3.63;1.40;;;;;;;16.61;100.00;101377.69;5030157;28;20979;-85
2022/07/05 06:01:13;;;;;;;5.22;1.55;;;;;;;16.21;100.00;101373.75;5029411;28;20428;-88
2022/07/05 06:03:46;;;;;;;3.88;1.55;;;;;;;16.29;100.00;101384.03;5018863;28;20432;-88
2022/07/05 06:06:19;;;;;;;5.35;1.40;;;;;;;16.54;100.00;101388.25;5042030;28;20425;-86
2022/07/05 06:08:47;;;;;;;2.90;1.40;;;;;;;16.52;100.00;101387.75;5012577;28;20425;-83
2022/07/05 06:11:21;;;;;;;7.73;1.40;;;;;;;16.51;100.00;101393.56;5034618;28;20435;-83
2022/07/05 06:13:55;;;;;;;2.47;1.30;;;;;;;16.31;100.00;101398.31;5014141;28;20435;-85
2022/07/05 06:16:29;;;;;;;4.68;1.50;;;;;;;16.24;100.00;101401.44;5031817;28;21265;-84
2022/07/05 06:19:02;;;;;;;3.50;1.38;;;;;;;16.24;100.00;101406.09;5046390;28;20431;-85
2022/07/05 06:21:35;;;;;;;5.07;1.30;;;;;;;16.09;100.00;101408.00;5037248;28;20435;-85
2022/07/05 06:24:03;;;;;;;5.85;1.58;;;;;;;15.96;100.00;101412.31;5050577;28;20435;-83
2022/07/05 06:26:37;;;;;;;4.40;1.20;;;;;;;16.14;100.00;101421.63;5032756;28;21119;-87
2022/07/05 06:29:06;;;;;;;3.87;1.50;;;;;;;16.52;100.00;101412.50;5021367;28;20931;-84
2022/07/05 06:31:40;;;;;;;3.70;1.40;;;;;;;16.65;100.00;101410.88;5025119;28;20432;-85
2022/07/05 06:34:08;;;;;;;2.92;1.23;;;;;;;16.72;100.00;101402.22;5009623;28;20428;-85
2022/07/05 06:36:41;;;;;;;4.80;1.33;;;;;;;16.83;100.00;101409.16;5033030;28;20438;-83
2022/07/05 06:39:14;;;;;;;3.40;1.50;;;;;;;17.03;100.00;101413.47;5011274;28;20444;-84
2022/07/05 06:41:47;;;;;;;5.47;1.40;;;;;;;17.05;100.00;101407.69;5032591;28;20444;-84
2022/07/05 06:44:22;;;;;;;2.70;1.27;;;;;;;17.32;100.00;101417.84;5027204;28;20427;-87
2022/07/05 06:46:55;;;;;;;2.35;1.17;;;;;;;17.29;100.00;101415.69;5031186;28;20868;-85
2022/07/05 06:49:28;;;;;;;2.10;1.07;;;;;;;17.32;100.00;101407.66;5034811;28;20710;-82
2022/07/05 06:52:01;;;;;;;7.13;1.20;;;;;;;17.10;100.00;101421.34;5028729;28;20439;-83
2022/07/05 06:54:34;;;;;;;4.75;1.30;;;;;;;16.92;100.00;101399.13;5004645;28;20928;-84
2022/07/05 06:57:03;;;;;;;2.10;1.10;;;;;;;17.00;100.00;101422.34;5039980;28;20449;-85
2022/07/05 06:59:33;;;;;;;2.85;1.20;;;;;;;17.05;100.00;101418.69;5003048;28;20767;-83
2022/07/05 07:02:06;;;;;;;1.80;0.98;;;;;;;17.00;100.00;101420.41;5020112;28;20428;-85
2022/07/05 07:04:34;;;;;;;4.88;1.10;;;;;;;17.14;100.00;101425.91;5033633;28;20431;-87
2022/07/05 07:07:02;;;;;;;2.70;1.10;;;;;;;17.17;100.00;101418.97;5034948;28;21290;-83
2022/07/05 07:09:34;;;;;;;4.15;1.20;;;;;;;17.31;100.00;101417.00;5024054;28;20435;-84
2022/07/05 07:12:03;;;;;;;4.70;1.20;;;;;;;17.48;100.00;101419.16;5044415;28;20421;-84
2022/07/05 07:14:38;;;;;;;3.17;1.10;;;;;;;17.66;100.00;101411.88;5028298;28;20432;-84
2022/07/05 07:17:11;;;;;;;4.72;1.38;;;;;;;17.72;100.00;101417.22;5028709;28;20431;-84
2022/07/05 07:19:44;;;;;;;4.28;1.25;;;;;;;17.52;100.00;101408.31;5008550;28;20439;-87
2022/07/05 07:22:17;;;;;;;2.97;1.15;;;;;;;17.55;100.00;101412.41;5009511;28;20439;-83
2022/07/05 07:24:46;;;;;;;3.78;1.10;;;;;;;17.35;100.00;101414.47;5008484;28;20439;-85
2022/07/05 07:27:14;;;;;;;3.08;1.20;;;;;;;17.42;100.00;101409.38;5010755;28;20867;-84
2022/07/05 07:29:49;;;;;;;3.83;1.20;;;;;;;17.52;100.00;101397.31;5016847;28;21514;-85
2022/07/05 07:32:22;;;;;;;2.05;1.00;;;;;;;17.29;100.00;101408.28;5018751;28;21267;-83
2022/07/05 07:34:55;;;;;;;2.00;0.80;;;;;;;17.65;100.00;101404.72;5030376;28;20430;-84
2022/07/05 07:37:23;;;;;;;0.90;0.70;;;;;;;18.09;100.00;101405.13;4981736;28;20428;-84
2022/07/05 07:39:57;;;;;;;2.08;0.80;;;;;;;18.17;100.00;101411.78;5024593;28;20443;-84
2022/07/05 07:42:30;;;;;;;2.17;0.90;;;;;;;18.01;100.00;101400.34;5014086;28;21058;-84
2022/07/05 07:45:06;;;;;;;3.30;1.00;;;;;;;17.95;100.00;101407.94;5017231;28;20427;-84
2022/07/05 07:47:40;;;;;;;4.03;1.00;;;;;;;17.77;100.00;101408.88;5029041;28;20431;-85
2022/07/05 07:50:13;;;;;;;3.15;0.90;;;;;;;17.66;100.00;101422.88;5012967;28;20427;-85
2022/07/05 07:52:46;;;;;;;2.78;0.90;;;;;;;17.54;100.00;101419.84;5028555;28;20951;-86
2022/07/05 07:55:19;;;;;;;3.35;0.90;;;;;;;17.29;100.00;101418.44;5029158;28;20829;-86
2022/07/05 07:57:52;;;;;;;1.75;1.00;;;;;;;17.50;100.00;101408.63;5012330;28;20500;-84
2022/07/05 08:00:22;;;;;;;2.75;0.95;;;;;;;17.68;100.00;101411.56;5007615;28;20473;-84
2022/07/05 08:02:55;;;;;;;3.63;1.08;;;;;;;18.04;100.00;101412.69;5007985;28;20440;-84
2022/07/05 08:05:29;;;;;;;1.80;0.70;;;;;;;17.85;100.00;101400.66;5030221;28;20428;-84
2022/07/05 08:08:02;;;;;;;1.65;0.90;;;;;;;18.19;100.00;101399.34;5035811;28;20426;-83
2022/07/05 08:10:35;;;;;;;2.28;0.75;;;;;;;18.52;100.00;101412.81;5032464;28;20788;-84
2022/07/05 08:13:03;;;;;;;1.77;0.70;;;;;;;18.40;100.00;101407.09;5032077;28;20438;-84
2022/07/05 08:15:38;;;;;;;2.33;0.70;;;;;;;18.35;100.00;101408.03;5018773;28;20424;-83
2022/07/05 08:23:47;;;;;;;2.40;0.80;;;;;;;18.03;100.00;101403.59;5027102;28;20429;-86
2022/07/05 08:26:16;;;;;;;2.53;1.00;;;;;;;18.56;100.00;101412.19;5011205;28;20437;-84
2022/07/05 08:28:44;;;;;;;1.10;0.63;;;;;;;18.96;100.00;101406.72;5008106;28;20435;-87
2022/07/05 08:31:14;;;;;;;1.75;0.80;;;;;;;19.19;94.52;101401.91;5030509;28;20444;-87
2022/07/05 08:33:47;;;;;;;1.60;0.73;;;;;;;18.62;96.98;101408.19;5013082;28;21086;-85
2022/07/05 08:36:21;;;;;;;1.55;0.75;;;;;;;18.40;100.00;101404.31;5014760;28;20854;-85
2022/07/05 08:38:50;;;;;;;3.80;0.80;;;;;;;18.27;100.00;101411.56;4987633;28;20919;-88
2022/07/05 08:41:24;;;;;;;1.48;0.73;;;;;;;18.10;88.81;101412.22;5038317;28;20440;-82
2022/07/05 08:43:53;;;;;;;1.42;0.60;;;;;;;18.00;92.17;101413.28;5037741;28;20432;-83
2022/07/05 08:46:31;;;;;;;1.30;0.70;;;;;;;18.28;88.36;101426.94;5029853;28;20443;-86
2022/07/05 08:49:05;;;;;;;5.07;0.88;;;;;;;18.77;100.00;101420.75;5000266;28;20982;-89
2022/07/05 08:51:35;;;;;;;2.33;0.82;;;;;;;19.02;100.00;101425.56;5015556;28;20440;-83
2022/07/05 08:54:12;;;;;;;1.38;0.70;;;;;;;18.97;96.17;101427.66;5028459;28;20416;-86
2022/07/05 08:56:52;;;;;;;3.70;1.00;;;;;;;18.77;100.00;101412.47;5032234;28;20425;-87
2022/07/05 08:59:21;;;;;;;2.72;0.70;;;;;;;19.24;100.00;101420.25;5010932;28;20423;-83
2022/07/05 09:01:57;;;;;;;2.08;0.75;;;;;;;19.33;97.32;101408.13;5031758;28;20432;-85
2022/07/05 09:04:34;;;;;;;1.53;0.70;;;;;;;18.99;94.74;101423.44;5015548;28;20462;-83
2022/07/05 09:07:09;;;;;;;1.23;0.60;;;;;;;18.36;87.36;101423.41;5008602;28;20816;-83
2022/07/05 09:09:43;;;;;;;2.00;0.70;;;;;;;18.09;70.10;101427.16;5013128;28;20437;-82
2022/07/05 09:12:16;;;;;;;0.60;0.40;;;;;;;17.78;81.54;101432.53;5042802;28;20431;-86
2022/07/05 09:14:44;;;;;;;2.42;0.55;;;;;;;17.47;77.93;101433.22;5036075;28;20891;-84
2022/07/05 09:17:14;;;;;;;1.90;0.60;;;;;;;17.30;86.53;101429.16;5029316;28;20717;-86
2022/07/05 09:20:06;;;;;;;2.75;0.60;;;;;;;17.56;84.26;101428.59;5013770;28;20436;-84
2022/07/05 09:22:46;;;;;;;2.33;0.77;;;;;;;18.35;94.33;101432.00;5029950;28;20503;-86
2022/07/05 09:25:17;;;;;;;1.40;0.60;;;;;;;18.67;76.37;101422.63;5036713;28;20423;-85
2022/07/05 09:27:52;;;;;;;2.38;0.70;;;;;;;18.78;72.30;101411.31;5021757;28;20419;-84
2022/07/05 09:30:28;;;;;;;1.42;0.55;;;;;;;18.93;76.05;101421.94;5034672;28;20442;-87
2022/07/05 09:33:08;;;;;;;1.85;0.60;;;;;;;19.08;79.78;101415.19;5036815;28;21061;-85
2022/07/05 09:35:42;;;;;;;1.00;0.60;;;;;;;19.32;76.09;101409.25;5036268;28;20438;-84
2022/07/05 09:38:21;;;;;;;1.92;0.75;;;;;;;19.15;76.46;101409.22;4999161;28;20747;-85
2022/07/05 09:40:51;;;;;;;2.50;0.60;;;;;;;19.26;62.46;101404.22;5029225;28;20422;-85
2022/07/05 09:43:26;;;;;;;1.38;0.63;;;;;;;19.59;71.16;101406.53;5010561;28;20887;-84
2022/07/05 09:46:03;;;;;;;0.40;0.40;;;;;;;19.79;58.40;101413.34;5012193;28;20765;-85
2022/07/05 09:48:37;;;;;;;1.30;0.60;;;;;;;20.09;66.81;101411.56;5018675;28;20430;-84
2022/07/05 09:51:12;;;;;;;1.33;0.57;;;;;;;19.61;59.65;101409.78;5008741;28;20914;-84
2022/07/05 09:53:46;;;;;;;1.75;0.60;;;;;;;19.36;58.83;101403.88;5029376;28;20914;-84
2022/07/05 09:56:14;;;;;;;1.42;0.60;;;;;;;19.66;59.51;101404.09;5010682;28;20502;-85
2022/07/05 09:58:48;;;;;;;1.80;0.60;;;;;;;20.03;61.54;101404.63;5013555;28;20440;-84
2022/07/05 10:01:26;;;;;;;0.68;0.60;;;;;;;19.89;54.46;101410.31;5025265;28;20882;-85
2022/07/05 10:04:02;;;;;;;1.50;0.50;;;;;;;19.75;62.03;101417.91;5027227;28;20431;-85
2022/07/05 10:06:35;;;;;;;1.00;0.47;;;;;;;19.70;52.99;101411.41;5028313;28;20886;-84
2022/07/05 10:09:10;;;;;;;4.35;0.50;;;;;;;20.16;53.43;101414.69;5028341;28;20427;-85
2022/07/05 10:11:41;;;;;;;1.90;0.40;;;;;;;20.20;60.45;101412.88;5037059;28;20554;-84
2022/07/05 10:14:15;;;;;;;0.70;0.70;;;;;;;19.68;63.96;101416.44;5011053;28;20430;-85
2022/07/05 10:16:57;;;;;;;1.10;0.50;;;;;;;19.32;61.42;101423.06;5007929;28;20523;-85
2022/07/05 10:19:33;;;;;;;0.75;0.47;;;;;;;19.19;63.97;101430.31;5034304;28;20424;-85
2022/07/05 10:22:02;;;;;;;0.63;0.50;;;;;;;19.64;69.08;101426.50;5032137;28;20911;-85
2022/07/05 10:24:35;;;;;;;1.20;0.70;;;;;;;19.91;60.31;101424.59;5017303;28;20432;-85
2022/07/05 10:27:08;;;;;;;1.13;0.50;;;;;;;19.90;64.87;101423.00;5025348;28;20974;-89
2022/07/05 10:29:43;;;;;;;1.23;0.60;;;;;;;20.17;59.64;101419.03;5039691;28;20461;-88
2022/07/05 10:32:17;;;;;;;1.40;0.70;;;;;;;20.74;65.39;101428.22;5020729;28;20432;-87
2022/07/05 10:34:49;;;;;;;2.13;0.80;;;;;;;20.43;57.74;101428.44;5030895;28;20457;-86
2022/07/05 10:37:27;;;;;;;2.13;1.00;;;;;;;20.11;65.78;101416.81;4981525;28;20931;-85
2022/07/05 10:40:01;;;;;;;1.75;0.57;;;;;;;20.10;64.84;101424.25;5008206;28;20431;-85
2022/07/05 10:42:39;;;;;;;0.80;0.50;;;;;;;20.16;70.76;101427.66;5019532;28;20436;-83
2022/07/05 10:45:30;;;;;;;1.60;0.65;;;;;;;20.04;67.24;101431.91;5013120;28;20438;-83
2022/07/05 10:48:17;;;;;;;1.20;0.50;;;;;;;19.87;75.87;101424.44;5010541;28;20423;-86
2022/07/05 10:50:53;;;;;;;0.90;0.70;;;;;;;20.15;66.74;101420.50;5033495;28;20794;-85
2022/07/05 10:53:29;;;;;;;1.92;0.60;;;;;;;20.34;65.63;101412.69;5013619;28;20439;-84
2022/07/05 10:56:00;;;;;;;0.93;0.55;;;;;;;19.88;62.80;101428.00;5048632;28;20753;-85
2022/07/05 10:58:36;;;;;;;2.60;0.70;;;;;;;20.22;76.20;101438.22;5051010;28;21063;-85
2022/07/05 11:01:38;;;;;;;2.22;0.90;;;;;;;20.66;72.40;101429.00;5048873;28;20427;-87
2022/07/05 11:04:34;;;;;;;1.47;0.70;;;;;;;20.04;63.91;101426.38;5064181;28;20420;-86
2022/07/05 11:07:04;;;;;;;1.42;0.70;;;;;;;19.98;71.41;101424.09;5055446;28;20438;-88
2022/07/05 11:09:37;;;;;;;1.17;0.70;;;;;;;19.85;76.09;101406.56;5070203;28;20423;-90
2022/07/05 11:12:14;;;;;;;2.38;0.70;;;;;;;19.79;85.60;101414.19;5061125;28;20435;-88
2022/07/05 11:14:48;;;;;;;2.78;0.70;;;;;;;19.22;69.11;101414.25;5051917;28;20482;-86
2022/07/05 11:17:29;;;;;;;1.10;0.70;;;;;;;19.16;79.07;101411.66;5065896;28;20411;-85
2022/07/05 11:20:12;;;;;;;1.98;0.60;;;;;;;19.53;79.93;101400.38;5051641;28;20434;-87
2022/07/05 11:23:01;;;;;;;1.08;0.70;;;;;;;19.62;71.32;101409.44;5066029;28;20420;-85
2022/07/05 11:25:36;;;;;;;0.93;0.60;;;;;;;19.92;68.11;101409.66;5041287;28;20420;-86
2022/07/05 11:28:17;;;;;;;1.40;0.50;;;;;;;20.05;64.08;101407.84;5047100;28;21237;-87
2022/07/05 11:31:03;;;;;;;0.95;0.50;;;;;;;20.15;60.59;101401.16;5048509;28;20427;-87
2022/07/05 11:33:40;;;;;;;2.22;0.60;;;;;;;20.51;50.92;101405.50;5065470;28;20430;-87
2022/07/05 11:36:25;;;;;;;0.93;0.55;;;;;;;20.82;55.33;101401.66;5074921;28;20436;-89
2022/07/05 11:39:19;;;;;;;1.30;0.60;;;;;;;21.44;66.47;101396.59;5059960;28;20921;-85
2022/07/05 11:41:52;;;;;;;1.25;0.50;;;;;;;20.85;57.92;101390.75;5052590;28;21386;-84
2022/07/05 11:44:25;;;;;;;0.95;0.40;;;;;;;20.84;52.38;101394.66;5040172;28;20776;-86
2022/07/05 11:47:00;;;;;;;0.47;0.40;;;;;;;21.26;59.19;101391.16;5045561;28;20433;-85
2022/07/05 11:49:33;;;;;;;1.70;0.65;;;;;;;21.61;55.27;101390.13;5017959;28;20453;-83
2022/07/05 11:52:07;;;;;;;1.63;0.70;;;;;;;21.66;58.41;101387.97;5035553;28;20478;-82
2022/07/05 11:54:36;;;;;;;1.75;0.52;;;;;;;21.86;52.59;101378.03;5013540;28;21064;-85
2022/07/05 11:57:09;;;;;;;2.00;0.60;;;;;;;22.48;64.87;101382.97;5024254;28;20938;-84